Terminal Aerodrome Forecast
Issued by NWS Quad Cities IA IL

Home | Current Version | Previous Version | Text Only | Print | Product List | Glossary On
Versions: 1 2 3 4 5 6 7 8 9 10 11 12 13 14 15 16 17 18 19 20 21 22 23 24 25 26 27 28
000
FTUS43 KDVN 022347
TAFDBQ
TAF
KDBQ 022347Z 0300/0324 08012KT 3SM BR OVC006
     FM030300 10008KT 1SM BR OVC004
     FM030700 VRB04KT 1/2SM FG VCSH OVC001
     FM030900 30010KT 1SM -SN BR OVC004
     FM031100 31014G21KT 1 1/2SM -SN BR OVC006
     FM031600 31018G28KT P6SM OVC012=

USA.gov is the U.S. government's official web portal to all federal, state and local government web resources and services.